createdAt,value
2022-11-17T00:00:35.748Z,10.50
2022-11-17T00:03:09.146Z,9.70
2022-11-17T00:05:36.636Z,11.77
2022-11-17T00:08:03.907Z,10.02
2022-11-17T00:10:31.004Z,6.97
2022-11-17T00:13:17.015Z,10.05
2022-11-17T00:15:44.718Z,9.13
2022-11-17T00:18:33.083Z,13.75
2022-11-17T00:21:19.877Z,11.55
2022-11-17T00:23:52.066Z,12.57
2022-11-17T00:28:51.511Z,9.00
2022-11-17T00:31:36.935Z,6.63
2022-11-17T00:34:07.965Z,8.05
2022-11-17T00:36:41.251Z,4.53
2022-11-17T00:39:10.035Z,3.10
2022-11-17T00:41:44.812Z,8.63
2022-11-17T00:44:16.203Z,4.15
2022-11-17T00:46:46.788Z,6.50
2022-11-17T00:49:14.942Z,7.03
2022-11-17T00:51:42.785Z,7.30
2022-11-17T00:54:16.317Z,3.55
2022-11-17T00:56:44.171Z,5.65
2022-11-17T00:59:11.932Z,4.75
2022-11-17T01:01:39.864Z,5.28
2022-11-17T01:04:07.497Z,6.68
2022-11-17T01:06:40.383Z,5.18
2022-11-17T01:09:27.083Z,5.80
2022-11-17T01:11:54.386Z,5.05
2022-11-17T01:14:24.860Z,4.28
2022-11-17T01:16:55.237Z,5.57
2022-11-17T01:19:25.115Z,7.65
2022-11-17T01:21:52.284Z,4.63
2022-11-17T01:24:23.595Z,3.95
2022-11-17T01:26:52.000Z,2.80
2022-11-17T01:29:19.189Z,5.90
2022-11-17T01:31:52.057Z,6.35
2022-11-17T01:34:20.033Z,5.05
2022-11-17T01:37:05.591Z,7.47
2022-11-17T01:39:32.973Z,11.23
2022-11-17T01:42:09.516Z,6.35
2022-11-17T01:44:48.106Z,8.60
2022-11-17T01:47:25.388Z,9.10
2022-11-17T01:50:01.483Z,13.10
2022-11-17T01:52:32.120Z,15.65
2022-11-17T01:55:04.016Z,14.05
2022-11-17T01:57:39.564Z,17.73
2022-11-17T02:00:12.152Z,24.02
2022-11-17T02:02:42.543Z,16.13
2022-11-17T02:05:24.542Z,17.13
2022-11-17T02:07:54.810Z,15.07
2022-11-17T02:10:22.322Z,15.18
2022-11-17T02:12:50.031Z,24.80
2022-11-17T02:15:17.187Z,15.63
2022-11-17T02:17:44.601Z,21.23
2022-11-17T02:20:35.437Z,21.60
2022-11-17T02:23:17.875Z,21.75
2022-11-17T02:26:27.485Z,19.98
2022-11-17T02:29:19.080Z,18.58
2022-11-17T02:31:54.535Z,17.60
2022-11-17T02:34:39.671Z,17.40
2022-11-17T02:37:25.628Z,16.00
2022-11-17T02:40:15.303Z,12.68
2022-11-17T02:43:03.666Z,13.43
2022-11-17T02:45:37.080Z,7.70
2022-11-17T02:48:14.121Z,11.10
2022-11-17T02:50:44.563Z,8.30
2022-11-17T02:53:13.948Z,8.60
2022-11-17T02:55:41.151Z,22.08
2022-11-17T02:58:12.267Z,7.38
2022-11-17T03:01:04.541Z,8.50
2022-11-17T03:03:31.668Z,11.15
2022-11-17T03:06:33.485Z,7.63
2022-11-17T03:09:13.501Z,5.68
2022-11-17T03:11:48.671Z,6.97
2022-11-17T03:14:38.784Z,3.05
2022-11-17T03:17:18.609Z,4.28
2022-11-17T03:19:53.269Z,4.40
2022-11-17T03:22:37.607Z,2.67
2022-11-17T03:25:14.697Z,2.85
2022-11-17T03:27:49.190Z,1.73
2022-11-17T03:30:18.578Z,1.02
2022-11-17T03:32:52.041Z,0.52
2022-11-17T03:35:24.927Z,1.75
2022-11-17T03:37:56.110Z,0.75
2022-11-17T03:40:27.565Z,1.02
2022-11-17T03:42:59.836Z,0.65
2022-11-17T03:48:26.956Z,0.43
2022-11-17T03:51:11.518Z,0.98
2022-11-17T03:53:38.852Z,0.40
2022-11-17T03:56:15.751Z,1.15
2022-11-17T03:59:00.778Z,0.77
2022-11-17T04:01:30.805Z,0.30
2022-11-17T04:03:57.974Z,2.83
2022-11-17T04:06:25.174Z,0.40
2022-11-17T04:08:52.310Z,0.20
2022-11-17T04:11:38.171Z,1.23
2022-11-17T04:14:23.648Z,0.20
2022-11-17T04:16:50.892Z,0.85
2022-11-17T04:19:17.967Z,1.58
2022-11-17T04:21:45.115Z,0.75
2022-11-17T04:24:12.298Z,1.30
2022-11-17T04:26:58.115Z,1.98
2022-11-17T04:29:25.258Z,1.70
2022-11-17T04:31:52.387Z,1.88
2022-11-17T04:34:19.445Z,1.20
2022-11-17T04:36:46.758Z,1.10
2022-11-17T04:39:15.687Z,1.25
2022-11-17T04:41:57.224Z,2.55
2022-11-17T04:44:28.512Z,1.90
2022-11-17T04:46:56.179Z,1.27
2022-11-17T04:49:24.694Z,1.42
2022-11-17T04:51:52.877Z,1.35
2022-11-17T04:54:23.706Z,3.35
2022-11-17T04:56:52.010Z,1.70
2022-11-17T04:59:19.348Z,3.50
2022-11-17T05:01:47.332Z,1.67
2022-11-17T05:04:40.199Z,0.85
2022-11-17T05:07:08.280Z,1.85
2022-11-17T05:09:35.645Z,1.30
2022-11-17T05:12:21.163Z,2.15
2022-11-17T05:14:50.332Z,2.80
2022-11-17T05:17:17.681Z,2.45
2022-11-17T05:19:47.005Z,2.80
2022-11-17T05:22:35.094Z,1.65
2022-11-17T05:25:02.935Z,2.42
2022-11-17T05:27:30.349Z,1.48
2022-11-17T05:29:57.710Z,1.48
2022-11-17T05:32:24.911Z,3.45
2022-11-17T05:34:52.019Z,3.45
2022-11-17T05:37:19.300Z,3.85
2022-11-17T05:39:46.542Z,1.88
2022-11-17T05:42:13.718Z,1.85
2022-11-17T05:44:40.855Z,5.07
2022-11-17T05:47:07.956Z,1.88
2022-11-17T05:49:35.051Z,1.52
2022-11-17T05:52:02.200Z,2.13
2022-11-17T05:54:29.271Z,2.17
2022-11-17T05:57:03.117Z,1.33
2022-11-17T05:59:41.692Z,2.08
2022-11-17T06:02:27.783Z,1.52
2022-11-17T06:04:54.864Z,1.88
2022-11-17T06:07:22.310Z,1.75
2022-11-17T06:09:50.248Z,2.22
2022-11-17T06:12:17.306Z,2.38
2022-11-17T06:14:44.367Z,4.50
2022-11-17T06:17:23.209Z,3.33
2022-11-17T06:20:05.883Z,2.28
2022-11-17T06:22:34.140Z,1.88
2022-11-17T06:25:03.561Z,2.58
2022-11-17T06:27:32.886Z,2.40
2022-11-17T06:30:05.280Z,1.65
2022-11-17T06:32:36.531Z,3.13
2022-11-17T06:35:07.465Z,2.88
2022-11-17T06:37:34.802Z,3.25
2022-11-17T06:40:01.969Z,4.65
2022-11-17T06:42:51.859Z,4.70
2022-11-17T06:45:18.962Z,4.75
2022-11-17T06:47:46.015Z,3.08
2022-11-17T06:50:13.129Z,2.88
2022-11-17T06:52:40.313Z,4.05
2022-11-17T06:55:08.060Z,5.35
2022-11-17T06:57:35.135Z,3.67
2022-11-17T07:00:02.484Z,4.15
2022-11-17T07:02:32.029Z,4.72
2022-11-17T07:04:59.235Z,1.90
2022-11-17T07:07:26.355Z,5.32
2022-11-17T07:09:53.548Z,7.78
2022-11-17T07:12:20.798Z,2.58
2022-11-17T07:14:47.893Z,4.88
2022-11-17T07:17:14.938Z,2.50
2022-11-17T07:19:42.083Z,1.55
2022-11-17T07:22:09.141Z,3.13
2022-11-17T07:24:36.272Z,2.10
2022-11-17T07:27:04.938Z,2.63
2022-11-17T07:29:32.424Z,3.63
2022-11-17T07:31:59.691Z,3.67
2022-11-17T07:34:26.857Z,3.40
2022-11-17T07:36:53.913Z,4.25
2022-11-17T07:39:22.004Z,1.35
2022-11-17T07:41:49.260Z,3.85
2022-11-17T07:44:16.344Z,3.28
2022-11-17T07:46:43.422Z,2.28
2022-11-17T07:49:10.487Z,2.58
2022-11-17T07:51:37.540Z,3.20
2022-11-17T07:54:04.907Z,2.65
2022-11-17T07:56:32.242Z,2.95
2022-11-17T07:58:59.350Z,1.70
2022-11-17T08:01:29.770Z,2.50
2022-11-17T08:03:57.932Z,3.75
2022-11-17T08:06:25.153Z,7.35
2022-11-17T08:08:53.631Z,3.33
2022-11-17T08:11:20.860Z,2.97
2022-11-17T08:13:50.116Z,4.18
2022-11-17T08:16:17.781Z,3.10
2022-11-17T08:18:50.576Z,3.25
2022-11-17T08:21:19.504Z,4.80
2022-11-17T08:23:55.037Z,5.95
2022-11-17T08:26:25.111Z,5.43
2022-11-17T08:28:57.910Z,5.93
2022-11-17T08:31:25.926Z,5.18
2022-11-17T08:33:53.090Z,8.45
2022-11-17T08:36:20.215Z,4.57
2022-11-17T08:38:47.253Z,5.65
2022-11-17T08:41:14.362Z,7.32
2022-11-17T08:43:41.461Z,5.93
2022-11-17T08:46:12.889Z,8.27
2022-11-17T08:48:40.425Z,3.77
2022-11-17T08:51:09.277Z,8.02
2022-11-17T08:53:36.378Z,8.10
2022-11-17T08:56:08.347Z,4.47
2022-11-17T08:58:40.156Z,4.97
2022-11-17T09:01:11.672Z,4.25
2022-11-17T09:03:39.001Z,5.75
2022-11-17T09:06:06.400Z,3.95
2022-11-17T09:08:49.087Z,5.18
2022-11-17T09:11:16.866Z,7.28
2022-11-17T09:13:45.847Z,5.97
2022-11-17T09:16:14.307Z,5.63
2022-11-17T09:18:41.775Z,8.65
2022-11-17T09:21:15.604Z,5.47
2022-11-17T09:23:42.993Z,4.82
2022-11-17T09:26:13.207Z,5.70
2022-11-17T09:28:40.723Z,3.30
2022-11-17T09:31:13.570Z,7.75
2022-11-17T09:33:41.349Z,16.35
2022-11-17T09:36:09.057Z,5.45
2022-11-17T09:38:37.495Z,2.90
2022-11-17T09:41:39.060Z,4.45
2022-11-17T09:44:25.017Z,3.53
2022-11-17T09:47:03.698Z,8.10
2022-11-17T09:49:58.365Z,4.45
2022-11-17T09:52:41.125Z,3.47
2022-11-17T09:55:08.161Z,5.22
2022-11-17T09:57:42.578Z,3.53
2022-11-17T10:00:15.946Z,3.17
2022-11-17T10:02:43.671Z,3.55
2022-11-17T10:05:16.195Z,5.43
2022-11-17T10:07:49.563Z,4.80
2022-11-17T10:10:40.144Z,4.32
2022-11-17T10:13:17.431Z,4.03
2022-11-17T10:15:49.883Z,4.22
2022-11-17T10:18:17.951Z,4.82
2022-11-17T10:20:45.643Z,4.80
2022-11-17T10:23:19.542Z,3.72
2022-11-17T10:25:48.511Z,4.32
2022-11-17T10:28:30.971Z,2.65
2022-11-17T10:33:47.783Z,6.23
2022-11-17T10:36:20.118Z,2.95
2022-11-17T10:41:18.969Z,2.40
2022-11-17T10:44:14.329Z,6.03
2022-11-17T10:47:04.373Z,3.42
2022-11-17T10:49:34.998Z,6.00
2022-11-17T10:52:19.028Z,4.63
2022-11-17T10:54:46.244Z,5.28
2022-11-17T10:57:26.638Z,5.45
2022-11-17T10:59:58.229Z,4.57
2022-11-17T11:02:35.432Z,5.00
2022-11-17T11:05:17.493Z,4.63
2022-11-17T11:07:44.885Z,3.08
2022-11-17T11:10:17.875Z,4.47
2022-11-17T11:12:50.476Z,6.63
2022-11-17T11:15:32.795Z,4.93
2022-11-17T11:17:59.938Z,5.43
2022-11-17T11:20:45.461Z,5.28
2022-11-17T11:23:56.083Z,3.38
2022-11-17T11:26:46.049Z,5.38
2022-11-17T11:29:32.070Z,3.28
2022-11-17T11:32:23.081Z,6.72
2022-11-17T11:34:50.149Z,6.40
2022-11-17T11:37:17.610Z,3.55
2022-11-17T11:39:56.252Z,4.05
2022-11-17T11:42:50.624Z,6.00
2022-11-17T11:45:48.539Z,5.30
2022-11-17T11:48:33.801Z,6.70
2022-11-17T11:51:12.964Z,5.43
2022-11-17T11:53:57.846Z,2.88
2022-11-17T11:56:35.232Z,6.38
2022-11-17T11:59:18.685Z,4.85
2022-11-17T12:01:56.701Z,7.32
2022-11-17T12:05:03.613Z,4.65
2022-11-17T12:07:38.713Z,4.80
2022-11-17T12:10:42.507Z,8.20
2022-11-17T12:13:15.481Z,2.95
2022-11-17T12:15:43.091Z,7.53
2022-11-17T12:18:19.534Z,5.55
2022-11-17T12:20:57.724Z,4.80
2022-11-17T12:23:52.104Z,6.00
2022-11-17T12:26:37.236Z,4.93
2022-11-17T12:29:22.452Z,3.30
2022-11-17T12:31:55.191Z,5.10
2022-11-17T12:34:24.357Z,3.50
2022-11-17T12:37:13.225Z,6.72
2022-11-17T12:39:57.614Z,4.70
2022-11-17T12:42:25.031Z,5.47
2022-11-17T12:45:18.469Z,3.65
2022-11-17T12:48:04.882Z,6.53
2022-11-17T12:50:53.360Z,4.85
2022-11-17T12:53:30.056Z,3.00
2022-11-17T12:56:32.452Z,2.38
2022-11-17T12:59:26.772Z,2.08
2022-11-17T13:02:08.945Z,2.28
2022-11-17T13:04:39.070Z,3.40
2022-11-17T13:07:08.776Z,4.45
2022-11-17T13:09:36.775Z,3.15
2022-11-17T13:12:06.795Z,3.40
2022-11-17T13:14:35.281Z,3.15
2022-11-17T13:17:03.341Z,7.38
2022-11-17T13:19:41.746Z,4.53
2022-11-17T13:22:11.781Z,4.30
2022-11-17T13:24:40.969Z,7.28
2022-11-17T13:27:18.169Z,3.47
2022-11-17T13:29:45.246Z,2.95
2022-11-17T13:32:12.812Z,3.67
2022-11-17T13:34:56.658Z,3.90
2022-11-17T13:37:29.747Z,4.22
2022-11-17T13:40:21.056Z,4.75
2022-11-17T13:42:49.609Z,4.95
2022-11-17T13:45:17.085Z,6.18
2022-11-17T13:47:50.989Z,3.25
2022-11-17T13:50:27.101Z,3.65
2022-11-17T13:53:18.020Z,1.95
2022-11-17T13:55:46.842Z,6.28
2022-11-17T13:58:38.610Z,4.22
2022-11-17T14:01:05.956Z,2.93
2022-11-17T14:03:37.634Z,2.30
2022-11-17T14:06:07.260Z,2.30
2022-11-17T14:08:35.928Z,2.63
2022-11-17T14:11:12.174Z,3.53
2022-11-17T14:13:54.043Z,3.83
2022-11-17T14:16:27.205Z,2.47
2022-11-17T14:19:14.616Z,3.22
2022-11-17T14:22:00.650Z,4.28
2022-11-17T14:24:28.481Z,1.95
2022-11-17T14:26:55.731Z,5.57
2022-11-17T14:29:23.208Z,1.58
2022-11-17T14:31:50.546Z,4.97
2022-11-17T14:34:17.982Z,2.13
2022-11-17T14:36:47.135Z,4.07
2022-11-17T14:39:17.573Z,2.60
2022-11-17T14:41:46.020Z,4.35
2022-11-17T14:44:13.697Z,2.10
2022-11-17T14:46:41.069Z,1.83
2022-11-17T14:49:08.573Z,3.28
2022-11-17T14:51:36.122Z,2.08
2022-11-17T14:54:03.890Z,1.60
2022-11-17T14:56:31.094Z,4.00
2022-11-17T14:58:59.692Z,1.85
2022-11-17T15:01:32.103Z,3.35
2022-11-17T15:04:20.849Z,2.67
2022-11-17T15:06:48.846Z,1.80
2022-11-17T15:09:16.532Z,3.45
2022-11-17T15:11:43.693Z,4.15
2022-11-17T15:14:11.142Z,3.28
2022-11-17T15:16:38.312Z,3.55
2022-11-17T15:19:06.749Z,3.90
2022-11-17T15:21:33.989Z,2.75
2022-11-17T15:24:03.430Z,3.08
2022-11-17T15:26:30.610Z,3.88
2022-11-17T15:28:58.126Z,2.47
2022-11-17T15:31:25.479Z,3.25
2022-11-17T15:33:52.826Z,3.83
2022-11-17T15:36:22.027Z,2.95
2022-11-17T15:38:49.441Z,1.55
2022-11-17T15:41:17.025Z,3.47
2022-11-17T15:43:45.322Z,3.78
2022-11-17T15:46:15.316Z,3.25
2022-11-17T15:48:44.919Z,1.65
2022-11-17T15:51:17.690Z,3.05
2022-11-17T15:53:46.581Z,1.77
2022-11-17T15:56:13.690Z,1.90
2022-11-17T15:58:41.853Z,5.68
2022-11-17T16:01:12.275Z,2.67
2022-11-17T16:03:41.282Z,3.03
2022-11-17T16:06:09.372Z,1.58
2022-11-17T16:08:37.332Z,2.08
2022-11-17T16:11:05.021Z,2.67
2022-11-17T16:13:33.214Z,6.38
2022-11-17T16:16:01.706Z,4.45
2022-11-17T16:18:29.824Z,2.90
2022-11-17T16:21:04.808Z,4.72
2022-11-17T16:23:38.884Z,2.78
2022-11-17T16:26:06.257Z,3.15
2022-11-17T16:28:33.609Z,5.00
2022-11-17T16:31:22.525Z,2.15
2022-11-17T16:33:51.783Z,2.80
2022-11-17T16:36:20.942Z,3.20
2022-11-17T16:39:01.810Z,5.30
2022-11-17T16:41:37.649Z,1.58
2022-11-17T16:44:10.894Z,3.35
2022-11-17T16:46:38.737Z,4.38
2022-11-17T16:49:09.905Z,1.63
2022-11-17T16:51:37.015Z,1.83
2022-11-17T16:54:07.616Z,2.58
2022-11-17T16:56:35.213Z,5.25
2022-11-17T16:59:08.782Z,2.60
2022-11-17T17:01:36.222Z,2.17
2022-11-17T17:04:07.466Z,3.25
2022-11-17T17:06:37.701Z,7.78
2022-11-17T17:09:07.689Z,3.25
2022-11-17T17:11:36.099Z,4.72
2022-11-17T17:14:04.852Z,3.80
2022-11-17T17:16:34.076Z,3.55
2022-11-17T17:19:04.133Z,5.47
2022-11-17T17:21:32.667Z,7.38
2022-11-17T17:24:00.121Z,2.67
2022-11-17T17:26:29.532Z,5.82
2022-11-17T17:28:58.906Z,2.42
2022-11-17T17:31:30.747Z,2.30
2022-11-17T17:34:00.010Z,2.13
2022-11-17T17:36:27.874Z,1.75
2022-11-17T17:38:57.241Z,3.55
2022-11-17T17:41:26.488Z,3.42
2022-11-17T17:44:02.368Z,3.72
2022-11-17T17:46:31.203Z,5.28
2022-11-17T17:48:58.752Z,3.25
2022-11-17T17:51:28.224Z,5.28
2022-11-17T17:53:58.228Z,5.95
2022-11-17T17:56:25.627Z,4.18
2022-11-17T17:58:55.516Z,11.23
2022-11-17T18:01:25.052Z,4.88
2022-11-17T18:03:54.072Z,3.03
2022-11-17T18:06:22.381Z,4.70
2022-11-17T18:08:49.921Z,3.13
2022-11-17T18:11:21.171Z,5.88
2022-11-17T18:13:50.643Z,4.68
2022-11-17T18:16:28.710Z,4.03
2022-11-17T18:19:00.881Z,2.72
2022-11-17T18:21:28.788Z,8.85
2022-11-17T18:23:57.657Z,6.18
2022-11-17T18:26:27.628Z,3.42
2022-11-17T18:29:03.670Z,6.65
2022-11-17T18:31:33.487Z,5.30
2022-11-17T18:34:06.970Z,7.25
2022-11-17T18:36:35.538Z,6.35
2022-11-17T18:39:03.840Z,3.97
2022-11-17T18:41:34.123Z,6.72
2022-11-17T18:44:01.931Z,9.48
2022-11-17T18:46:31.133Z,5.38
2022-11-17T18:48:59.205Z,7.35
2022-11-17T18:51:29.438Z,4.20
2022-11-17T18:53:58.596Z,4.13
2022-11-17T18:56:30.902Z,3.85
2022-11-17T19:01:30.063Z,5.38
2022-11-17T19:04:00.941Z,4.25
2022-11-17T19:06:28.546Z,2.97
2022-11-17T19:08:58.644Z,10.00
2022-11-17T19:11:26.974Z,3.95
2022-11-17T19:13:54.264Z,3.58
2022-11-17T19:16:23.690Z,3.40
2022-11-17T19:18:53.472Z,4.40
2022-11-17T19:21:21.881Z,5.22
2022-11-17T19:23:51.933Z,3.33
2022-11-17T19:26:25.025Z,4.30
2022-11-17T19:28:57.136Z,3.28
2022-11-17T19:31:24.821Z,4.80
2022-11-17T19:33:52.236Z,5.95
2022-11-17T19:36:22.264Z,4.05
2022-11-17T19:38:54.808Z,6.43
2022-11-17T19:41:29.480Z,8.10
2022-11-17T19:43:58.549Z,4.65
2022-11-17T19:46:27.468Z,3.53
2022-11-17T19:48:56.264Z,3.85
2022-11-17T19:51:31.872Z,3.50
2022-11-17T19:54:03.077Z,6.97
2022-11-17T19:56:30.925Z,6.35
2022-11-17T19:58:58.285Z,4.82
2022-11-17T20:01:30.188Z,6.18
2022-11-17T20:04:00.144Z,7.18
2022-11-17T20:06:31.967Z,3.90
2022-11-17T20:08:59.152Z,5.95
2022-11-17T20:11:27.690Z,3.42
2022-11-17T20:13:55.623Z,4.70
2022-11-17T20:16:24.728Z,7.38
2022-11-17T20:18:54.534Z,3.72
2022-11-17T20:21:22.327Z,4.70
2022-11-17T20:23:49.683Z,4.97
2022-11-17T20:26:17.853Z,4.70
2022-11-17T20:28:45.559Z,6.95
2022-11-17T20:31:15.456Z,3.58
2022-11-17T20:33:43.694Z,4.03
2022-11-17T20:36:19.198Z,4.80
2022-11-17T20:38:53.449Z,9.48
2022-11-17T20:41:23.312Z,3.67
2022-11-17T20:43:52.771Z,3.65
2022-11-17T20:46:20.609Z,8.93
2022-11-17T20:48:47.995Z,3.10
2022-11-17T20:51:23.936Z,6.60
2022-11-17T20:53:51.847Z,4.35
2022-11-17T20:56:19.656Z,5.72
2022-11-17T20:58:46.871Z,4.22
2022-11-17T21:01:16.812Z,3.30
2022-11-17T21:03:45.433Z,4.00
2022-11-17T21:06:13.440Z,5.63
2022-11-17T21:08:41.943Z,3.80
2022-11-17T21:11:36.809Z,5.53
2022-11-17T21:14:05.548Z,4.05
2022-11-17T21:16:33.530Z,3.10
2022-11-17T21:19:00.970Z,4.00
2022-11-17T21:21:28.111Z,10.00
2022-11-17T21:23:56.090Z,5.88
2022-11-17T21:26:23.682Z,7.82
2022-11-17T21:28:51.690Z,4.75
2022-11-17T21:31:24.117Z,8.80
2022-11-17T21:34:02.771Z,4.80
2022-11-17T21:36:31.198Z,9.25
2022-11-17T21:38:59.068Z,4.60
2022-11-17T21:41:29.288Z,3.83
2022-11-17T21:43:59.862Z,3.53
2022-11-17T21:46:29.362Z,5.30
2022-11-17T21:48:58.272Z,5.72
2022-11-17T21:51:28.235Z,2.95
2022-11-17T21:53:57.636Z,4.18
2022-11-17T21:56:26.880Z,4.90
2022-11-17T21:58:55.672Z,6.75
2022-11-17T22:01:23.806Z,5.60
2022-11-17T22:03:51.212Z,5.57
2022-11-17T22:06:20.357Z,4.75
2022-11-17T22:08:48.017Z,4.40
2022-11-17T22:11:35.222Z,6.97
2022-11-17T22:14:13.909Z,5.95
2022-11-17T22:16:43.420Z,4.43
2022-11-17T22:19:11.642Z,3.70
2022-11-17T22:21:39.662Z,4.88
2022-11-17T22:24:10.089Z,4.75
2022-11-17T22:26:38.600Z,7.68
2022-11-17T22:29:08.027Z,5.32
2022-11-17T22:31:35.270Z,7.28
2022-11-17T22:34:02.384Z,3.05
2022-11-17T22:36:29.566Z,4.72
2022-11-17T22:38:56.723Z,6.95
2022-11-17T22:41:24.135Z,4.07
2022-11-17T22:43:52.897Z,5.63
2022-11-17T22:46:21.776Z,6.38
2022-11-17T22:48:49.400Z,7.80
2022-11-17T22:51:36.187Z,4.82
2022-11-17T22:54:04.308Z,2.28
2022-11-17T22:56:32.636Z,3.92
2022-11-17T22:59:00.329Z,4.45
2022-11-17T23:01:27.601Z,6.10
2022-11-17T23:03:54.859Z,6.18
2022-11-17T23:06:27.218Z,3.42
2022-11-17T23:08:55.554Z,3.65
2022-11-17T23:11:37.184Z,6.35
2022-11-17T23:14:07.168Z,2.67
2022-11-17T23:16:34.354Z,3.20
2022-11-17T23:19:01.465Z,2.33
2022-11-17T23:21:28.570Z,1.38
2022-11-17T23:23:56.043Z,4.05
2022-11-17T23:26:23.710Z,4.03
2022-11-17T23:28:51.022Z,4.88
2022-11-17T23:31:18.566Z,5.05
2022-11-17T23:33:47.767Z,4.50
2022-11-17T23:36:23.111Z,7.40
2022-11-17T23:38:51.250Z,3.35
2022-11-17T23:41:22.647Z,4.03
2022-11-17T23:43:51.866Z,3.57
2022-11-17T23:46:21.395Z,3.40
2022-11-17T23:48:48.927Z,3.63
2022-11-17T23:51:21.992Z,4.28
2022-11-17T23:53:51.707Z,6.40
2022-11-17T23:56:22.614Z,7.85
2022-11-17T23:58:51.010Z,5.28
